createdAt,value
2023-03-24T00:01:14.975Z,16.07
2023-03-24T00:03:43.688Z,16.06
2023-03-24T00:06:12.697Z,16.04
2023-03-24T00:08:42.247Z,16.00
2023-03-24T00:11:12.398Z,15.98
2023-03-24T00:13:42.063Z,15.96
2023-03-24T00:16:12.945Z,15.95
2023-03-24T00:18:41.350Z,15.93
2023-03-24T00:21:10.579Z,15.93
2023-03-24T00:23:38.833Z,15.91
2023-03-24T00:26:14.549Z,15.90
2023-03-24T00:28:45.229Z,15.90
2023-03-24T00:31:16.166Z,15.89
2023-03-24T00:33:46.412Z,15.89
2023-03-24T00:36:15.359Z,15.89
2023-03-24T00:38:43.971Z,15.90
2023-03-24T00:41:12.139Z,15.92
2023-03-24T00:43:40.486Z,15.94
2023-03-24T00:46:12.733Z,15.95
2023-03-24T00:48:40.943Z,15.97
2023-03-24T00:51:09.295Z,15.97
2023-03-24T00:53:38.078Z,15.96
2023-03-24T00:56:06.631Z,15.96
2023-03-24T00:58:34.891Z,15.98
2023-03-24T01:03:42.000Z,16.07
2023-03-24T01:06:10.446Z,16.07
2023-03-24T01:08:38.507Z,16.07
2023-03-24T01:11:07.167Z,16.07
2023-03-24T01:13:35.276Z,16.08
2023-03-24T01:16:03.431Z,16.07
2023-03-24T01:18:31.910Z,16.02
2023-03-24T01:21:00.146Z,15.96
2023-03-24T01:23:28.637Z,15.93
2023-03-24T01:25:56.961Z,15.91
2023-03-24T01:28:25.502Z,15.88
2023-03-24T01:30:54.501Z,15.82
2023-03-24T01:33:23.651Z,15.78
2023-03-24T01:35:51.895Z,15.75
2023-03-24T01:38:21.168Z,15.72
2023-03-24T01:40:49.591Z,15.69
2023-03-24T01:43:21.793Z,15.65
2023-03-24T01:46:05.424Z,15.61
2023-03-24T01:48:55.222Z,15.60
2023-03-24T01:51:31.897Z,15.58
2023-03-24T01:54:08.287Z,15.56
2023-03-24T01:56:40.569Z,15.54
2023-03-24T01:59:17.955Z,15.52
2023-03-24T02:01:47.432Z,15.50
2023-03-24T02:04:16.429Z,15.48
2023-03-24T02:06:46.106Z,15.45
2023-03-24T02:09:15.373Z,15.44
2023-03-24T02:11:45.068Z,15.42
2023-03-24T02:14:14.009Z,15.40
2023-03-24T02:17:23.854Z,15.40
2023-03-24T02:20:39.893Z,15.36
2023-03-24T02:23:30.300Z,15.33
2023-03-24T02:26:41.405Z,15.31
2023-03-24T02:29:23.210Z,15.29
2023-03-24T02:32:22.631Z,15.29
2023-03-24T02:35:09.661Z,15.28
2023-03-24T02:38:05.099Z,15.27
2023-03-24T02:41:15.099Z,15.25
2023-03-24T02:44:04.276Z,15.23
2023-03-24T02:46:32.868Z,15.21
2023-03-24T02:49:10.205Z,15.19
2023-03-24T02:51:56.975Z,15.18
2023-03-24T02:54:48.669Z,15.16
2023-03-24T02:57:29.961Z,15.13
2023-03-24T03:00:04.566Z,15.10
2023-03-24T03:02:36.076Z,15.06
2023-03-24T03:05:14.034Z,15.03
2023-03-24T03:07:44.054Z,14.99
2023-03-24T03:10:27.368Z,14.94
2023-03-24T03:13:00.460Z,14.91
2023-03-24T03:15:34.573Z,14.90
2023-03-24T03:18:06.899Z,14.86
2023-03-24T03:20:42.482Z,14.85
2023-03-24T03:23:16.030Z,14.82
2023-03-24T03:25:49.100Z,14.80
2023-03-24T03:28:25.681Z,14.77
2023-03-24T03:30:58.933Z,14.76
2023-03-24T03:33:34.686Z,14.74
2023-03-24T03:36:10.030Z,14.71
2023-03-24T03:39:03.813Z,14.69
2023-03-24T03:41:33.282Z,14.68
2023-03-24T03:44:01.829Z,14.67
2023-03-24T03:46:30.540Z,14.67
2023-03-24T03:48:59.028Z,14.66
2023-03-24T03:51:27.304Z,14.64
2023-03-24T03:54:01.806Z,14.63
2023-03-24T03:56:33.418Z,14.62
2023-03-24T03:59:02.249Z,14.60
2023-03-24T04:01:34.957Z,14.59
2023-03-24T04:04:09.956Z,14.57
2023-03-24T04:06:55.340Z,14.56
2023-03-24T04:09:38.951Z,14.54
2023-03-24T04:12:31.343Z,14.54
2023-03-24T04:15:21.043Z,14.55
2023-03-24T04:17:55.221Z,14.52
2023-03-24T04:20:44.713Z,14.49
2023-03-24T04:23:29.048Z,14.47
2023-03-24T04:26:16.724Z,14.45
2023-03-24T04:29:06.674Z,14.42
2023-03-24T04:31:41.532Z,14.39
2023-03-24T04:34:29.052Z,14.38
2023-03-24T04:37:03.565Z,14.34
2023-03-24T04:39:36.620Z,14.32
2023-03-24T04:42:13.947Z,14.32
2023-03-24T04:44:43.053Z,14.32
2023-03-24T04:47:12.608Z,14.32
2023-03-24T04:49:40.860Z,14.31
2023-03-24T04:52:09.046Z,14.31
2023-03-24T04:54:37.814Z,14.29
2023-03-24T04:57:07.259Z,14.28
2023-03-24T04:59:35.384Z,14.26
2023-03-24T05:02:04.514Z,14.25
2023-03-24T05:04:33.543Z,14.25
2023-03-24T05:07:01.638Z,14.23
2023-03-24T05:09:30.064Z,14.21
2023-03-24T05:12:00.453Z,14.18
2023-03-24T05:14:29.894Z,14.18
2023-03-24T05:16:58.314Z,14.18
2023-03-24T05:19:26.600Z,14.20
2023-03-24T05:21:54.772Z,14.21
2023-03-24T05:24:23.356Z,14.22
2023-03-24T05:26:51.431Z,14.24
2023-03-24T05:29:19.654Z,14.26
2023-03-24T05:31:47.839Z,14.27
2023-03-24T05:34:16.249Z,14.28
2023-03-24T05:36:44.490Z,14.28
2023-03-24T05:39:12.831Z,14.28
2023-03-24T05:41:41.298Z,14.27
2023-03-24T05:44:10.690Z,14.25
2023-03-24T05:46:39.666Z,14.25
2023-03-24T05:49:07.938Z,14.24
2023-03-24T05:51:36.265Z,14.23
2023-03-24T05:54:04.849Z,14.21
2023-03-24T05:56:33.212Z,14.18
2023-03-24T05:59:01.556Z,14.15
2023-03-24T06:01:31.961Z,14.14
2023-03-24T06:04:05.885Z,14.11
2023-03-24T06:06:34.673Z,14.10
2023-03-24T06:09:03.339Z,14.10
2023-03-24T06:11:32.012Z,14.09
2023-03-24T06:14:00.598Z,14.11
2023-03-24T06:16:29.872Z,14.14
2023-03-24T06:18:58.250Z,14.16
2023-03-24T06:21:26.835Z,14.20
2023-03-24T06:23:54.969Z,14.24
2023-03-24T06:26:23.141Z,14.27
2023-03-24T06:28:52.055Z,14.30
2023-03-24T06:31:21.488Z,14.33
2023-03-24T06:33:51.407Z,14.35
2023-03-24T06:36:20.135Z,14.38
2023-03-24T06:38:49.633Z,14.43
2023-03-24T06:41:20.293Z,14.48
2023-03-24T06:43:48.502Z,14.55
2023-03-24T06:46:16.849Z,14.64
2023-03-24T06:48:48.590Z,14.71
2023-03-24T06:51:17.861Z,14.74
2023-03-24T06:53:46.035Z,14.77
2023-03-24T06:56:15.529Z,14.80
2023-03-24T06:58:44.732Z,14.97
2023-03-24T07:01:14.123Z,15.51
2023-03-24T07:03:42.602Z,15.92
2023-03-24T07:06:10.939Z,16.04
2023-03-24T07:08:39.143Z,16.09
2023-03-24T07:11:07.960Z,16.11
2023-03-24T07:13:36.545Z,16.10
2023-03-24T07:16:05.664Z,16.13
2023-03-24T07:18:34.704Z,16.24
2023-03-24T07:21:02.961Z,16.38
2023-03-24T07:23:31.182Z,16.54
2023-03-24T07:25:59.716Z,16.75
2023-03-24T07:28:27.881Z,16.95
2023-03-24T07:30:56.135Z,17.16
2023-03-24T07:33:24.549Z,17.29
2023-03-24T07:35:57.068Z,17.41
2023-03-24T07:38:27.156Z,17.52
2023-03-24T07:41:00.936Z,17.63
2023-03-24T07:43:29.351Z,17.66
2023-03-24T07:45:57.869Z,17.63
2023-03-24T07:48:26.039Z,17.66
2023-03-24T07:50:54.214Z,17.74
2023-03-24T07:53:22.270Z,17.92
2023-03-24T07:55:50.611Z,18.11
2023-03-24T07:58:19.233Z,18.23
2023-03-24T08:00:49.642Z,18.31
2023-03-24T08:03:18.856Z,18.44
2023-03-24T08:05:47.852Z,18.56
2023-03-24T08:08:16.143Z,18.64
2023-03-24T08:10:44.233Z,18.73
2023-03-24T08:13:12.511Z,18.80
2023-03-24T08:15:40.769Z,18.91
2023-03-24T08:18:08.973Z,19.01
2023-03-24T08:20:37.412Z,19.11
2023-03-24T08:23:05.888Z,19.23
2023-03-24T08:25:34.933Z,19.34
2023-03-24T08:28:03.388Z,19.50
2023-03-24T08:30:32.015Z,19.64
2023-03-24T08:33:02.094Z,19.82
2023-03-24T08:35:34.109Z,19.96
2023-03-24T08:38:06.632Z,20.09
2023-03-24T08:40:41.026Z,20.19
2023-03-24T08:43:14.212Z,20.31
2023-03-24T08:45:42.531Z,20.39
2023-03-24T08:48:11.138Z,20.42
2023-03-24T08:50:42.433Z,20.42
2023-03-24T08:53:11.513Z,20.42
2023-03-24T08:55:40.437Z,20.44
2023-03-24T08:58:14.937Z,20.43
2023-03-24T09:00:44.454Z,20.38
2023-03-24T09:03:18.891Z,20.34
2023-03-24T09:05:47.217Z,20.34
2023-03-24T09:08:17.496Z,20.36
2023-03-24T09:10:46.277Z,20.40
2023-03-24T09:13:16.371Z,20.44
2023-03-24T09:15:49.980Z,20.47
2023-03-24T09:18:19.701Z,20.54
2023-03-24T09:20:48.773Z,20.62
2023-03-24T09:23:19.106Z,20.74
2023-03-24T09:25:52.666Z,20.84
2023-03-24T09:28:22.360Z,20.92
2023-03-24T09:30:51.212Z,20.98
2023-03-24T09:33:19.606Z,21.03
2023-03-24T09:35:55.656Z,21.09
2023-03-24T09:38:25.489Z,21.16
2023-03-24T09:41:03.963Z,21.24
2023-03-24T09:43:46.385Z,21.32
2023-03-24T09:46:41.094Z,21.31
2023-03-24T09:49:15.558Z,21.30
2023-03-24T09:51:45.576Z,21.30
2023-03-24T09:54:35.483Z,21.36
2023-03-24T09:57:04.490Z,21.48
2023-03-24T09:59:36.830Z,21.61
2023-03-24T10:02:15.337Z,21.71
2023-03-24T10:04:43.587Z,21.78
2023-03-24T10:07:53.829Z,21.86
2023-03-24T10:10:40.384Z,21.98
2023-03-24T10:13:20.441Z,22.11
2023-03-24T10:16:12.718Z,22.21
2023-03-24T10:19:06.199Z,22.29
2023-03-24T10:21:36.082Z,22.37
2023-03-24T10:24:24.233Z,22.41
2023-03-24T10:27:04.031Z,22.48
2023-03-24T10:29:35.525Z,22.57
2023-03-24T10:32:21.621Z,22.69
2023-03-24T10:34:57.514Z,22.83
2023-03-24T10:37:25.824Z,22.98
2023-03-24T10:39:54.046Z,23.11
2023-03-24T10:42:26.533Z,23.25
2023-03-24T10:44:56.273Z,23.41
2023-03-24T10:47:27.953Z,23.57
2023-03-24T10:50:14.164Z,23.73
2023-03-24T10:52:48.024Z,23.71
2023-03-24T10:55:19.666Z,23.72
2023-03-24T10:57:51.025Z,23.76
2023-03-24T11:00:28.947Z,23.77
2023-03-24T11:03:01.276Z,23.72
2023-03-24T11:05:32.664Z,23.58
2023-03-24T11:08:20.908Z,23.44
2023-03-24T11:10:49.454Z,23.44
2023-03-24T11:13:39.950Z,23.48
2023-03-24T11:16:15.283Z,23.54
2023-03-24T11:18:59.141Z,23.53
2023-03-24T11:21:33.170Z,23.59
2023-03-24T11:24:03.848Z,23.61
2023-03-24T11:26:36.778Z,23.58
2023-03-24T11:29:08.272Z,23.53
2023-03-24T11:31:38.568Z,23.32
2023-03-24T11:34:45.028Z,23.07
2023-03-24T11:37:25.887Z,23.11
2023-03-24T11:40:17.565Z,23.28
2023-03-24T11:42:52.052Z,23.35
2023-03-24T11:45:27.363Z,23.46
2023-03-24T11:47:58.023Z,23.59
2023-03-24T11:50:36.913Z,23.74
2023-03-24T11:53:27.908Z,23.87
2023-03-24T11:56:17.573Z,23.82
2023-03-24T11:58:56.193Z,23.73
2023-03-24T12:01:34.606Z,23.69
2023-03-24T12:04:27.407Z,23.68
2023-03-24T12:07:20.172Z,23.79
2023-03-24T12:10:24.114Z,23.74
2023-03-24T12:12:59.544Z,23.61
2023-03-24T12:15:45.969Z,23.46
2023-03-24T12:18:20.835Z,23.24
2023-03-24T12:21:13.170Z,23.17
2023-03-24T12:24:13.419Z,23.27
2023-03-24T12:26:42.363Z,23.45
2023-03-24T12:29:28.800Z,23.61
2023-03-24T12:32:11.771Z,23.75
2023-03-24T12:34:51.658Z,23.78
2023-03-24T12:37:33.892Z,23.65
2023-03-24T12:40:14.774Z,23.38
2023-03-24T12:42:46.095Z,23.28
2023-03-24T12:45:31.388Z,23.50
2023-03-24T12:48:15.844Z,23.74
2023-03-24T12:50:53.318Z,23.98
2023-03-24T12:53:43.610Z,24.21
2023-03-24T12:56:31.742Z,24.38
2023-03-24T12:59:08.950Z,24.43
2023-03-24T13:01:43.142Z,24.40
2023-03-24T13:04:15.565Z,24.32
2023-03-24T13:06:50.091Z,24.24
2023-03-24T13:09:43.346Z,24.11
2023-03-24T13:12:20.990Z,23.94
2023-03-24T13:14:52.291Z,23.78
2023-03-24T13:17:52.416Z,23.67
2023-03-24T13:20:33.671Z,23.50
2023-03-24T13:23:28.101Z,23.49
2023-03-24T13:25:59.789Z,23.49
2023-03-24T13:28:40.878Z,23.51
2023-03-24T13:31:11.397Z,23.51
2023-03-24T13:33:42.456Z,23.45
2023-03-24T13:36:49.160Z,23.33
2023-03-24T13:39:20.495Z,23.03
2023-03-24T13:41:54.753Z,22.90
2023-03-24T13:44:34.460Z,22.89
2023-03-24T13:47:13.638Z,22.88
2023-03-24T13:49:57.683Z,22.91
2023-03-24T13:52:32.985Z,22.83
2023-03-24T13:55:08.356Z,22.75
2023-03-24T13:57:53.765Z,22.75
2023-03-24T14:00:25.963Z,22.80
2023-03-24T14:03:12.193Z,22.79
2023-03-24T14:05:56.962Z,22.76
2023-03-24T14:08:54.424Z,22.76
2023-03-24T14:12:12.502Z,22.65
2023-03-24T14:15:26.511Z,22.43
2023-03-24T14:17:56.832Z,22.40
2023-03-24T14:21:02.185Z,22.37
2023-03-24T14:23:42.461Z,22.41
2023-03-24T14:26:15.361Z,22.52
2023-03-24T14:28:49.975Z,22.61
2023-03-24T14:31:34.869Z,22.70
2023-03-24T14:34:07.596Z,22.66
2023-03-24T14:36:44.647Z,22.47
2023-03-24T14:39:25.389Z,22.40
2023-03-24T14:41:54.036Z,22.37
2023-03-24T14:44:45.118Z,22.40
2023-03-24T14:47:20.546Z,22.42
2023-03-24T14:49:52.755Z,22.42
2023-03-24T14:52:27.592Z,22.49
2023-03-24T14:55:00.154Z,22.57
2023-03-24T14:57:31.939Z,22.61
2023-03-24T15:00:32.000Z,22.50
2023-03-24T15:03:19.795Z,22.24
2023-03-24T15:05:48.734Z,22.07
2023-03-24T15:08:20.999Z,21.98
2023-03-24T15:11:06.222Z,22.00
2023-03-24T15:13:44.544Z,22.15
2023-03-24T15:16:13.448Z,22.22
2023-03-24T15:18:59.764Z,22.28
2023-03-24T15:21:38.165Z,22.31
2023-03-24T15:24:28.831Z,22.28
2023-03-24T15:27:07.096Z,22.18
2023-03-24T15:29:40.539Z,21.98
2023-03-24T15:32:20.529Z,21.88
2023-03-24T15:34:54.069Z,21.79
2023-03-24T15:37:26.435Z,21.72
2023-03-24T15:40:05.239Z,21.66
2023-03-24T15:42:45.552Z,21.69
2023-03-24T15:45:25.035Z,21.68
2023-03-24T15:47:54.977Z,21.69
2023-03-24T15:50:36.521Z,21.72
2023-03-24T15:53:21.798Z,21.70
2023-03-24T15:56:05.278Z,21.66
2023-03-24T15:58:56.657Z,21.65
2023-03-24T16:01:29.613Z,21.60
2023-03-24T16:04:01.588Z,21.54
2023-03-24T16:06:35.738Z,21.51
2023-03-24T16:09:09.062Z,21.50
2023-03-24T16:11:38.180Z,21.48
2023-03-24T16:14:17.086Z,21.49
2023-03-24T16:16:45.688Z,21.55
2023-03-24T16:19:14.565Z,21.59
2023-03-24T16:21:43.420Z,21.62
2023-03-24T16:24:12.249Z,21.64
2023-03-24T16:26:41.074Z,21.65
2023-03-24T16:29:18.326Z,21.67
2023-03-24T16:31:50.658Z,21.70
2023-03-24T16:34:21.438Z,21.71
2023-03-24T16:36:52.847Z,21.72
2023-03-24T16:39:27.840Z,21.71
2023-03-24T16:41:57.062Z,21.72
2023-03-24T16:44:25.559Z,21.75
2023-03-24T16:46:55.699Z,21.76
2023-03-24T16:49:24.852Z,21.78
2023-03-24T16:51:54.175Z,21.80
2023-03-24T16:54:23.005Z,21.79
2023-03-24T16:56:52.424Z,21.78
2023-03-24T16:59:22.483Z,21.75
2023-03-24T17:01:52.375Z,21.76
2023-03-24T17:04:21.926Z,21.76
2023-03-24T17:06:52.440Z,21.76
2023-03-24T17:09:21.772Z,21.77
2023-03-24T17:11:53.266Z,21.79
2023-03-24T17:14:22.274Z,21.85
2023-03-24T17:16:51.176Z,21.88
2023-03-24T17:19:22.866Z,21.86
2023-03-24T17:22:00.677Z,21.85
2023-03-24T17:24:29.714Z,21.88
2023-03-24T17:26:57.960Z,21.89
2023-03-24T17:29:26.627Z,21.89
2023-03-24T17:31:55.300Z,21.87
2023-03-24T17:34:24.179Z,21.82
2023-03-24T17:36:53.600Z,21.80
2023-03-24T17:39:22.369Z,21.70
2023-03-24T17:41:50.799Z,21.61
2023-03-24T17:44:19.126Z,21.49
2023-03-24T17:46:47.506Z,21.39
2023-03-24T17:49:16.415Z,21.33
2023-03-24T17:51:45.317Z,21.28
2023-03-24T17:54:14.775Z,21.23
2023-03-24T17:56:43.250Z,21.13
2023-03-24T17:59:11.616Z,20.99
2023-03-24T18:01:40.874Z,20.83
2023-03-24T18:04:09.802Z,20.66
2023-03-24T18:06:38.050Z,20.50
2023-03-24T18:09:06.970Z,20.41
2023-03-24T18:11:36.451Z,20.38
2023-03-24T18:14:04.920Z,20.36
2023-03-24T18:16:34.101Z,20.29
2023-03-24T18:19:03.144Z,20.15
2023-03-24T18:21:32.964Z,20.00
2023-03-24T18:24:02.357Z,19.92
2023-03-24T18:26:30.788Z,19.90
2023-03-24T18:28:59.601Z,19.83
2023-03-24T18:31:30.288Z,19.76
2023-03-24T18:34:00.571Z,19.64
2023-03-24T18:36:28.774Z,19.57
2023-03-24T18:39:04.255Z,19.52
2023-03-24T18:41:33.122Z,19.49
2023-03-24T18:44:02.795Z,19.46
2023-03-24T18:46:31.703Z,19.34
2023-03-24T18:49:01.045Z,19.25
2023-03-24T18:51:30.221Z,19.22
2023-03-24T18:53:58.768Z,19.20
2023-03-24T18:56:27.733Z,19.19
2023-03-24T18:58:56.978Z,19.12
2023-03-24T19:01:25.583Z,19.05
2023-03-24T19:03:54.259Z,19.01
2023-03-24T19:06:22.477Z,18.97
2023-03-24T19:08:53.524Z,18.94
2023-03-24T19:11:22.992Z,18.90
2023-03-24T19:13:51.258Z,18.88
2023-03-24T19:16:20.804Z,18.87
2023-03-24T19:18:50.241Z,18.84
2023-03-24T19:21:20.310Z,18.81
2023-03-24T19:23:51.245Z,18.78
2023-03-24T19:26:20.963Z,18.74
2023-03-24T19:28:49.585Z,18.70
2023-03-24T19:31:20.541Z,18.66
2023-03-24T19:33:48.962Z,18.63
2023-03-24T19:36:17.183Z,18.62
2023-03-24T19:38:45.686Z,18.58
2023-03-24T19:41:14.716Z,18.53
2023-03-24T19:43:43.546Z,18.50
2023-03-24T19:46:12.387Z,18.46
2023-03-24T19:48:40.912Z,18.43
2023-03-24T19:51:09.169Z,18.40
2023-03-24T19:53:38.115Z,18.39
2023-03-24T19:56:07.623Z,18.36
2023-03-24T19:58:35.965Z,18.32
2023-03-24T20:01:04.684Z,18.30
2023-03-24T20:03:33.370Z,18.27
2023-03-24T20:06:06.719Z,18.23
2023-03-24T20:08:37.394Z,18.17
2023-03-24T20:11:10.712Z,18.14
2023-03-24T20:13:39.150Z,18.12
2023-03-24T20:16:07.349Z,18.09
2023-03-24T20:18:35.931Z,18.05
2023-03-24T20:21:05.851Z,18.03
2023-03-24T20:23:35.522Z,18.00
2023-03-24T20:26:03.654Z,17.94
2023-03-24T20:28:31.817Z,17.88
2023-03-24T20:31:02.558Z,17.85
2023-03-24T20:33:31.347Z,17.82
2023-03-24T20:35:59.672Z,17.80
2023-03-24T20:38:28.690Z,17.79
2023-03-24T20:40:58.552Z,17.77
2023-03-24T20:43:27.801Z,17.76
2023-03-24T20:45:57.391Z,17.73
2023-03-24T20:48:25.782Z,17.73
2023-03-24T20:50:54.075Z,17.74
2023-03-24T20:53:22.656Z,17.75
2023-03-24T20:56:02.173Z,17.76
2023-03-24T20:58:30.996Z,17.76
2023-03-24T21:00:59.990Z,17.77
2023-03-24T21:03:28.237Z,17.77
2023-03-24T21:05:56.385Z,17.77
2023-03-24T21:08:24.572Z,17.78
2023-03-24T21:10:58.269Z,17.79
2023-03-24T21:13:36.970Z,17.80
2023-03-24T21:16:09.028Z,17.81
2023-03-24T21:18:38.931Z,17.83
2023-03-24T21:21:06.968Z,17.85
2023-03-24T21:23:35.612Z,17.90
2023-03-24T21:26:06.509Z,17.91
2023-03-24T21:28:34.727Z,17.96
2023-03-24T21:31:08.795Z,18.01
2023-03-24T21:33:37.120Z,18.03
2023-03-24T21:36:09.999Z,18.09
2023-03-24T21:38:38.421Z,18.16
2023-03-24T21:41:07.503Z,18.26
2023-03-24T21:43:36.422Z,18.35
2023-03-24T21:46:06.766Z,18.42
2023-03-24T21:48:35.184Z,18.54
2023-03-24T21:51:04.115Z,18.70
2023-03-24T21:53:32.696Z,18.87
2023-03-24T21:56:01.971Z,19.03
2023-03-24T21:58:32.652Z,19.12
2023-03-24T22:01:01.137Z,19.22
2023-03-24T22:03:30.280Z,19.27
2023-03-24T22:05:59.316Z,19.30
2023-03-24T22:08:28.344Z,19.40
2023-03-24T22:10:58.414Z,19.44
2023-03-24T22:13:31.929Z,19.46
2023-03-24T22:16:02.350Z,19.41
2023-03-24T22:18:33.259Z,19.34
2023-03-24T22:21:08.021Z,19.30
2023-03-24T22:23:39.594Z,19.25
2023-03-24T22:26:13.626Z,19.25
2023-03-24T22:28:43.728Z,19.25
2023-03-24T22:31:15.326Z,19.26
2023-03-24T22:33:44.823Z,19.27
2023-03-24T22:36:12.981Z,19.26
2023-03-24T22:38:41.088Z,19.26
2023-03-24T22:41:11.960Z,19.23
2023-03-24T22:43:42.121Z,19.21
2023-03-24T22:46:11.458Z,19.20
2023-03-24T22:48:39.968Z,19.15
2023-03-24T22:51:08.530Z,19.15
2023-03-24T22:53:36.544Z,19.17
2023-03-24T22:56:07.901Z,19.27
2023-03-24T22:58:36.019Z,19.37
2023-03-24T23:01:05.002Z,19.47
2023-03-24T23:03:33.563Z,19.54
2023-03-24T23:06:02.735Z,19.62
2023-03-24T23:08:35.067Z,19.71
2023-03-24T23:11:06.959Z,19.80
2023-03-24T23:13:35.597Z,19.90
2023-03-24T23:16:05.445Z,19.96
2023-03-24T23:18:34.703Z,20.01
2023-03-24T23:21:08.944Z,20.05
2023-03-24T23:23:39.014Z,20.11
2023-03-24T23:26:09.872Z,20.21
2023-03-24T23:28:38.577Z,20.25
2023-03-24T23:31:21.759Z,20.26
2023-03-24T23:33:53.813Z,20.26
2023-03-24T23:36:23.589Z,20.26
2023-03-24T23:38:53.258Z,20.27
2023-03-24T23:41:22.843Z,20.29
2023-03-24T23:43:53.458Z,20.29
2023-03-24T23:46:23.131Z,20.29
2023-03-24T23:48:51.895Z,20.26
2023-03-24T23:51:21.244Z,20.22
2023-03-24T23:53:49.377Z,20.19
2023-03-24T23:56:19.009Z,20.20
2023-03-24T23:58:47.754Z,20.20
